createdAt,value
2018-03-23T00:01:15.066Z,9.20
2018-03-23T00:03:45.574Z,8.43
2018-03-23T00:06:15.725Z,8.67
2018-03-23T00:08:45.186Z,10.73
2018-03-23T00:11:16.008Z,9.60
2018-03-23T00:13:48.377Z,9.50
2018-03-23T00:16:18.190Z,12.20
2018-03-23T00:18:47.642Z,9.57
2018-03-23T00:21:17.098Z,8.40
2018-03-23T00:23:46.540Z,8.20
2018-03-23T00:26:16.006Z,8.00
2018-03-23T00:28:46.495Z,6.63
2018-03-23T00:31:16.292Z,7.20
2018-03-23T00:33:45.753Z,7.33
2018-03-23T00:36:15.222Z,7.00
2018-03-23T00:38:44.653Z,8.10
2018-03-23T00:41:14.132Z,8.27
2018-03-23T00:43:44.608Z,9.53
2018-03-23T00:46:14.239Z,7.40
2018-03-23T00:48:43.840Z,8.13
2018-03-23T00:51:13.702Z,9.23
2018-03-23T00:53:43.129Z,8.70
2018-03-23T00:56:12.614Z,8.43
2018-03-23T00:58:42.060Z,8.30
2018-03-23T06:03:07.474Z,19.00
2018-03-23T06:05:36.939Z,22.30
2018-03-23T06:08:06.412Z,16.90
2018-03-23T06:10:35.856Z,18.13
2018-03-23T06:13:05.328Z,20.17
2018-03-23T06:15:34.781Z,18.27
2018-03-23T06:18:04.245Z,18.77
2018-03-23T06:20:33.728Z,25.13
2018-03-23T06:23:03.188Z,25.07
2018-03-23T06:25:32.648Z,22.93
2018-03-23T06:28:02.155Z,24.63
2018-03-23T06:30:31.581Z,26.40
2018-03-23T06:33:02.392Z,23.30
2018-03-23T06:35:31.847Z,25.93
2018-03-23T06:38:03.323Z,24.03
2018-03-23T06:40:33.590Z,30.80
2018-03-23T06:43:03.059Z,28.97
2018-03-23T06:45:32.522Z,28.57
2018-03-23T06:48:02.117Z,28.00
2018-03-23T06:50:31.774Z,27.30
2018-03-23T06:53:01.314Z,23.87
2018-03-23T06:55:30.860Z,22.73
2018-03-23T06:58:00.267Z,20.23
2018-03-23T07:00:29.750Z,11.50
2018-03-23T07:02:59.406Z,13.20
2018-03-23T07:05:29.069Z,12.63
2018-03-23T07:08:00.252Z,11.53
2018-03-23T07:10:29.804Z,13.17
2018-03-23T07:12:59.435Z,11.23
2018-03-23T07:15:29.156Z,11.67
2018-03-23T07:17:58.639Z,11.97
2018-03-23T07:20:28.104Z,12.90
2018-03-23T07:22:57.561Z,11.30
2018-03-23T07:25:27.041Z,9.07
2018-03-23T07:27:56.499Z,8.33
2018-03-23T07:30:25.956Z,11.10
2018-03-23T07:32:55.401Z,8.70
2018-03-23T07:35:24.904Z,10.13
2018-03-23T07:37:54.350Z,11.97
2018-03-23T07:40:23.832Z,9.90
2018-03-23T07:42:53.286Z,11.60
2018-03-23T07:45:22.786Z,10.53
2018-03-23T07:47:52.251Z,9.50
2018-03-23T07:50:21.708Z,11.63
2018-03-23T07:52:51.185Z,10.03
2018-03-23T07:55:20.650Z,10.30
2018-03-23T07:57:50.128Z,10.47
2018-03-23T08:00:19.590Z,11.13
2018-03-23T08:02:49.054Z,12.03
2018-03-23T08:05:18.869Z,11.63
2018-03-23T08:07:48.312Z,10.37
2018-03-23T08:10:19.749Z,10.83
2018-03-23T08:12:50.145Z,10.93
2018-03-23T08:15:20.431Z,11.03
2018-03-23T08:17:49.889Z,11.37
2018-03-23T08:20:19.335Z,11.63
2018-03-23T08:22:48.801Z,10.97
2018-03-23T08:25:18.254Z,10.40
2018-03-23T08:27:47.752Z,10.00
2018-03-23T08:30:17.235Z,11.43
2018-03-23T08:32:46.674Z,8.10
2018-03-23T08:35:16.125Z,10.07
2018-03-23T08:37:45.577Z,8.03
2018-03-23T08:40:15.046Z,9.63
2018-03-23T08:42:44.514Z,9.10
2018-03-23T08:45:13.959Z,8.87
2018-03-23T08:47:43.465Z,10.07
2018-03-23T08:50:12.874Z,9.73
2018-03-23T08:52:42.328Z,10.17
2018-03-23T08:55:11.791Z,10.23
2018-03-23T08:57:41.259Z,10.47
2018-03-23T09:00:10.728Z,10.70
2018-03-23T09:02:40.200Z,11.20
2018-03-23T09:05:09.665Z,14.63
2018-03-23T09:07:39.133Z,12.40
2018-03-23T09:10:08.599Z,12.90
2018-03-23T09:12:38.061Z,12.27
2018-03-23T09:15:07.524Z,11.87
2018-03-23T09:17:37.013Z,12.50
2018-03-23T09:20:06.477Z,15.47
2018-03-23T09:22:35.954Z,15.83
2018-03-23T09:25:05.419Z,16.60
2018-03-23T09:27:34.880Z,16.20
2018-03-23T09:30:04.360Z,16.00
2018-03-23T09:32:34.756Z,17.03
2018-03-23T09:35:04.216Z,16.70
2018-03-23T09:37:33.697Z,15.27
2018-03-23T09:40:03.165Z,15.60
2018-03-23T09:42:32.648Z,14.13
2018-03-23T09:45:02.112Z,14.90
2018-03-23T09:47:31.581Z,12.40
2018-03-23T09:50:01.053Z,11.03
2018-03-23T09:52:30.513Z,11.53
2018-03-23T09:54:59.993Z,12.83
2018-03-23T09:57:29.452Z,13.63
2018-03-23T09:59:58.931Z,15.70
2018-03-23T10:02:29.332Z,18.37
2018-03-23T10:04:58.807Z,17.13
2018-03-23T10:07:28.281Z,15.63
2018-03-23T10:09:57.726Z,14.40
2018-03-23T10:12:27.190Z,14.07
2018-03-23T10:14:56.681Z,14.53
2018-03-23T10:17:26.132Z,15.77
2018-03-23T10:19:55.615Z,14.67
2018-03-23T10:22:25.096Z,13.53
2018-03-23T10:24:54.589Z,14.77
2018-03-23T10:30:22.688Z,11.70
2018-03-23T20:26:55.641Z,11.57
2018-03-23T20:29:25.121Z,11.07
2018-03-23T20:32:00.447Z,11.20
2018-03-23T20:34:29.920Z,11.60
2018-03-23T20:36:59.380Z,11.00
2018-03-23T20:39:28.850Z,11.03
2018-03-23T20:41:58.317Z,11.50
2018-03-23T20:44:27.825Z,12.47
2018-03-23T20:46:57.299Z,12.13
2018-03-23T20:49:26.756Z,13.30
2018-03-23T20:51:56.250Z,11.57
2018-03-23T20:54:25.817Z,11.63
2018-03-23T20:56:55.307Z,11.97
2018-03-23T20:59:25.694Z,12.77
2018-03-23T21:01:55.167Z,14.03
2018-03-23T21:04:24.684Z,12.50
2018-03-23T21:06:54.134Z,13.97
2018-03-23T21:09:23.617Z,13.47
2018-03-23T21:11:53.078Z,13.17
2018-03-23T21:14:22.652Z,12.43
2018-03-23T21:16:52.143Z,14.63
2018-03-23T21:19:21.596Z,12.80
2018-03-23T21:21:51.091Z,13.43
2018-03-23T21:24:20.553Z,13.57
2018-03-23T21:26:50.048Z,12.57
2018-03-23T21:29:19.513Z,12.40
2018-03-23T21:31:48.994Z,14.87
2018-03-23T21:34:18.430Z,13.50
2018-03-23T21:36:47.906Z,11.90
2018-03-23T21:39:17.368Z,12.77
2018-03-23T21:41:46.837Z,11.60
2018-03-23T21:44:16.289Z,11.00
2018-03-23T21:46:45.758Z,11.87
2018-03-23T21:49:15.258Z,12.60
2018-03-23T21:51:44.706Z,11.50
2018-03-23T21:54:14.164Z,13.33
2018-03-23T21:56:43.661Z,12.43
2018-03-23T21:59:13.123Z,12.40
2018-03-23T22:01:42.593Z,12.37
2018-03-23T22:04:12.065Z,13.57
2018-03-23T22:06:41.545Z,11.87
2018-03-23T22:09:11.018Z,11.40
2018-03-23T22:11:40.492Z,12.33
2018-03-23T22:14:09.948Z,11.53
2018-03-23T22:16:39.409Z,12.20
2018-03-23T22:19:08.872Z,11.13
2018-03-23T22:21:38.336Z,12.40
2018-03-23T22:24:07.826Z,11.43
2018-03-23T22:26:37.286Z,11.10
2018-03-23T22:29:06.741Z,10.60
2018-03-23T22:31:36.206Z,10.57
2018-03-23T22:34:05.680Z,11.03
2018-03-23T22:36:36.102Z,11.10
2018-03-23T22:39:05.555Z,10.53
2018-03-23T22:41:35.025Z,10.43
2018-03-23T22:44:04.475Z,10.80
2018-03-23T22:46:33.947Z,10.73
2018-03-23T22:49:03.407Z,10.30
2018-03-23T22:51:32.887Z,10.60
2018-03-23T22:54:02.336Z,10.43
2018-03-23T22:56:32.787Z,10.57
2018-03-23T22:59:02.289Z,10.60
2018-03-23T23:01:31.707Z,11.53
2018-03-23T23:04:01.160Z,10.57
2018-03-23T23:06:30.636Z,10.80
2018-03-23T23:09:00.106Z,10.53
2018-03-23T23:11:29.565Z,10.33
2018-03-23T23:13:59.061Z,10.47
2018-03-23T23:16:28.533Z,10.57
2018-03-23T23:18:58.025Z,11.00
2018-03-23T23:21:27.483Z,10.50
2018-03-23T23:23:56.945Z,10.83
2018-03-23T23:26:26.417Z,10.10
2018-03-23T23:28:55.892Z,10.43
2018-03-23T23:31:25.372Z,11.13
2018-03-23T23:33:58.656Z,10.00
2018-03-23T23:36:28.109Z,10.27
2018-03-23T23:38:57.582Z,10.60
2018-03-23T23:41:27.054Z,11.67
2018-03-23T23:43:56.586Z,10.37
2018-03-23T23:46:26.043Z,11.37
2018-03-23T23:48:55.520Z,10.57
2018-03-23T23:51:25.486Z,10.57
2018-03-23T23:53:54.962Z,10.03
2018-03-23T23:56:24.416Z,10.27
2018-03-23T23:58:53.879Z,9.90
